Aidasol — ICPE — position and weather

sailwx.info

Track history (hours):
 
Tides and Currents Weather Stations Pressure Air Temp Water Temp Dewpoint Dewpoint Depression Visibility Wind Speed Wind Dir Waves Ship Positions

Aidasol

Last reported at 2018-Jun-24 05:00 UTC. Time now 2018-Jun-24 05:14 UTC.
Position N 69°41' E 019°02'.

Length 253 m; draft 7.3 m.

Type: Passenger vessel. MMSI: 247302900.

Date/timePositionNaut miles runAvg speedWind from/ knotsBaromVisibWave heightAir tempDewpointWater temp
2018-Jun-24 05:00N 69°41' E 019°02'612.1
2018-Jun-24 04:30N 69°47' E 019°11'713.7
2018-Jun-24 04:00N 69°49' E 019°29'713.7
2018-Jun-24 03:30N 69°51' E 019°48'713.8
2018-Jun-24 03:00N 69°57' E 019°58'714.3
2018-Jun-24 02:29N 70°03' E 020°09'714.0
2018-Jun-24 02:00N 70°09' E 020°18'713.9
2018-Jun-24 01:30N 70°16' E 020°26'714.8
2018-Jun-24 01:00N 70°23' E 020°31'715.0
2018-Jun-24 00:30N 70°30' E 020°37'815.4
2018-Jun-24 00:00N 70°38' E 020°43'28 8.3
2018-Jun-23 20:40N 70°57' E 021°43'1 8.1
2018-Jun-23 20:30N 70°58' E 021°47'4 8.1
2018-Jun-23 20:00N 70°60' E 021°58'4 8.0
2018-Jun-23 19:30N 71°02' E 022°09'4 8.3
2018-Jun-23 19:00N 71°04' E 022°20'612.7
2018-Jun-23 18:30N 71°03' E 022°39'713.6
2018-Jun-23 18:00N 70°60' E 022°58'714.0
2018-Jun-23 17:29N 70°57' E 023°18'613.3
2018-Jun-23 17:00N 70°52' E 023°30'714.9
2018-Jun-23 16:30N 70°44' E 023°33'5 9.6
2018-Jun-23 16:00N 70°40' E 023°40'0 0.3
2018-Jun-23 15:30N 70°40' E 023°40'0 0.0
2018-Jun-23 15:00N 70°40' E 023°40'0 0.0
2018-Jun-23 14:29N 70°40' E 023°40'0 0.0
2018-Jun-23 13:59N 70°40' E 023°40'0 0.0
2018-Jun-23 13:29N 70°40' E 023°40'0 0.0
2018-Jun-23 12:59N 70°40' E 023°40'0 0.0
2018-Jun-23 12:29N 70°40' E 023°40'0 0.0
2018-Jun-23 11:59N 70°40' E 023°40'0 0.0
2018-Jun-23 11:29N 70°40' E 023°40'0 0.0
2018-Jun-23 10:59N 70°40' E 023°40'0 0.0
2018-Jun-23 10:29N 70°40' E 023°40'0 0.0
2018-Jun-23 09:59N 70°40' E 023°40'0 0.0
2018-Jun-23 09:29N 70°40' E 023°40'0 0.0
2018-Jun-23 08:59N 70°40' E 023°40'0 0.0
2018-Jun-23 08:29N 70°40' E 023°40'0 0.0
2018-Jun-23 07:59N 70°40' E 023°40'0 0.1
2018-Jun-23 07:30N 70°40' E 023°40'3 4.8
2018-Jun-23 06:59N 70°40' E 023°33'511.4
2018-Jun-23 06:30N 70°45' E 023°36'815.2
2018-Jun-23 06:00N 70°50' E 023°54'917.6
2018-Jun-23 05:30N 70°56' E 024°15'917.8
2018-Jun-23 05:00N 71°02' E 024°35'918.9
2018-Jun-23 04:30N 70°59' E 025°02'917.6
2018-Jun-23 04:00N 70°57' E 025°29'916.9
2018-Jun-23 03:30N 70°57' E 025°55'2 4.2
2018-Jun-23 02:59N 70°59' E 025°58'0 0.0
2018-Jun-23 02:29N 70°59' E 025°58'0 0.0
2018-Jun-23 01:59N 70°59' E 025°58'0 0.0
2018-Jun-23 01:29N 70°59' E 025°58'0 0.0
2018-Jun-23 00:59N 70°59' E 025°58'0 0.0
2018-Jun-23 00:29N 70°59' E 025°58'0 0.0
2018-Jun-22 23:59N 70°59' E 025°58'0 0.0
2018-Jun-22 23:29N 70°59' E 025°58'0 0.0
2018-Jun-22 22:59N 70°59' E 025°58'0 0.0
2018-Jun-22 22:29N 70°59' E 025°58'0 0.0
2018-Jun-22 21:53N 70°59' E 025°58'0 0.0
2018-Jun-22 21:29N 70°59' E 025°58'0 0.0
2018-Jun-22 20:59N 70°59' E 025°58'0 0.0
2018-Jun-22 20:29N 70°59' E 025°58'1 2.1
2018-Jun-22 20:00N 70°58' E 025°56'5 9.7
2018-Jun-22 19:30N 70°59' E 026°11'713.8
2018-Jun-22 19:00N 71°06' E 026°14'815.7
2018-Jun-22 18:30N 71°13' E 026°04'815.5
2018-Jun-22 18:00N 71°20' E 025°54'815.5
2018-Jun-22 17:29N 71°27' E 025°42'  
Track history (hours):
 
Tides and Currents Weather Stations Pressure Air Temp Water Temp Dewpoint Dewpoint Depression Visibility Wind Speed Wind Dir Waves Ship Positions

Aidasol

Last reported at 2018-Jun-24 05:00 UTC. Time now 2018-Jun-24 05:14 UTC.
Position N 69°41' E 019°02'.

Length 253 m; draft 7.3 m.

Type: Passenger vessel. MMSI: 247302900.

Date/timePositionNaut miles runAvg speedWind from/ knotsBaromVisibWave heightAir tempDewpointWater temp
2018-Jun-24 05:00N 69°41' E 019°02'612.1
2018-Jun-24 04:30N 69°47' E 019°11'713.7
2018-Jun-24 04:00N 69°49' E 019°29'713.7
2018-Jun-24 03:30N 69°51' E 019°48'713.8
2018-Jun-24 03:00N 69°57' E 019°58'714.3
2018-Jun-24 02:29N 70°03' E 020°09'714.0
2018-Jun-24 02:00N 70°09' E 020°18'713.9
2018-Jun-24 01:30N 70°16' E 020°26'714.8
2018-Jun-24 01:00N 70°23' E 020°31'715.0
2018-Jun-24 00:30N 70°30' E 020°37'815.4
2018-Jun-24 00:00N 70°38' E 020°43'28 8.3
2018-Jun-23 20:40N 70°57' E 021°43'1 8.1
2018-Jun-23 20:30N 70°58' E 021°47'4 8.1
2018-Jun-23 20:00N 70°60' E 021°58'4 8.0
2018-Jun-23 19:30N 71°02' E 022°09'4 8.3
2018-Jun-23 19:00N 71°04' E 022°20'612.7
2018-Jun-23 18:30N 71°03' E 022°39'713.6
2018-Jun-23 18:00N 70°60' E 022°58'714.0
2018-Jun-23 17:29N 70°57' E 023°18'613.3
2018-Jun-23 17:00N 70°52' E 023°30'714.9
2018-Jun-23 16:30N 70°44' E 023°33'5 9.6
2018-Jun-23 16:00N 70°40' E 023°40'0 0.3
2018-Jun-23 15:30N 70°40' E 023°40'0 0.0
2018-Jun-23 15:00N 70°40' E 023°40'0 0.0
2018-Jun-23 14:29N 70°40' E 023°40'0 0.0
2018-Jun-23 13:59N 70°40' E 023°40'0 0.0
2018-Jun-23 13:29N 70°40' E 023°40'0 0.0
2018-Jun-23 12:59N 70°40' E 023°40'0 0.0
2018-Jun-23 12:29N 70°40' E 023°40'0 0.0
2018-Jun-23 11:59N 70°40' E 023°40'0 0.0
2018-Jun-23 11:29N 70°40' E 023°40'0 0.0
2018-Jun-23 10:59N 70°40' E 023°40'0 0.0
2018-Jun-23 10:29N 70°40' E 023°40'0 0.0
2018-Jun-23 09:59N 70°40' E 023°40'0 0.0
2018-Jun-23 09:29N 70°40' E 023°40'0 0.0
2018-Jun-23 08:59N 70°40' E 023°40'0 0.0
2018-Jun-23 08:29N 70°40' E 023°40'0 0.0
2018-Jun-23 07:59N 70°40' E 023°40'0 0.1
2018-Jun-23 07:30N 70°40' E 023°40'3 4.8
2018-Jun-23 06:59N 70°40' E 023°33'511.4
2018-Jun-23 06:30N 70°45' E 023°36'815.2
2018-Jun-23 06:00N 70°50' E 023°54'917.6
2018-Jun-23 05:30N 70°56' E 024°15'917.8
2018-Jun-23 05:00N 71°02' E 024°35'918.9
2018-Jun-23 04:30N 70°59' E 025°02'917.6
2018-Jun-23 04:00N 70°57' E 025°29'916.9
2018-Jun-23 03:30N 70°57' E 025°55'2 4.2
2018-Jun-23 02:59N 70°59' E 025°58'0 0.0
2018-Jun-23 02:29N 70°59' E 025°58'0 0.0
2018-Jun-23 01:59N 70°59' E 025°58'0 0.0
2018-Jun-23 01:29N 70°59' E 025°58'0 0.0
2018-Jun-23 00:59N 70°59' E 025°58'0 0.0
2018-Jun-23 00:29N 70°59' E 025°58'0 0.0
2018-Jun-22 23:59N 70°59' E 025°58'0 0.0
2018-Jun-22 23:29N 70°59' E 025°58'0 0.0
2018-Jun-22 22:59N 70°59' E 025°58'0 0.0
2018-Jun-22 22:29N 70°59' E 025°58'0 0.0
2018-Jun-22 21:53N 70°59' E 025°58'0 0.0
2018-Jun-22 21:29N 70°59' E 025°58'0 0.0
2018-Jun-22 20:59N 70°59' E 025°58'0 0.0
2018-Jun-22 20:29N 70°59' E 025°58'1 2.1
2018-Jun-22 20:00N 70°58' E 025°56'5 9.7
2018-Jun-22 19:30N 70°59' E 026°11'713.8
2018-Jun-22 19:00N 71°06' E 026°14'815.7
2018-Jun-22 18:30N 71°13' E 026°04'815.5
2018-Jun-22 18:00N 71°20' E 025°54'815.5
2018-Jun-22 17:29N 71°27' E 025°42'  

Dump ship's entire track history